sensor_id;sensor_type;location;lat;lon;timestamp;temperature;humidity
37052;DHT22;22964;52.272;13.356;2022-10-16T00:01:35;19.50;74.90
37052;DHT22;22964;52.272;13.356;2022-10-16T00:04:01;19.50;74.80
37052;DHT22;22964;52.272;13.356;2022-10-16T00:06:30;19.50;74.80
37052;DHT22;22964;52.272;13.356;2022-10-16T00:08:56;19.50;74.90
37052;DHT22;22964;52.272;13.356;2022-10-16T00:11:28;19.50;74.80
37052;DHT22;22964;52.272;13.356;2022-10-16T00:13:58;19.40;74.90
37052;DHT22;22964;52.272;13.356;2022-10-16T00:16:25;19.40;75.00
37052;DHT22;22964;52.272;13.356;2022-10-16T00:18:50;19.40;75.00
37052;DHT22;22964;52.272;13.356;2022-10-16T00:21:22;19.40;75.10
37052;DHT22;22964;52.272;13.356;2022-10-16T00:23:51;19.40;75.20
37052;DHT22;22964;52.272;13.356;2022-10-16T00:26:17;19.40;75.20
37052;DHT22;22964;52.272;13.356;2022-10-16T00:28:46;19.40;75.10
37052;DHT22;22964;52.272;13.356;2022-10-16T00:31:12;19.40;75.10
37052;DHT22;22964;52.272;13.356;2022-10-16T00:33:39;19.40;75.00
37052;DHT22;22964;52.272;13.356;2022-10-16T00:36:06;19.40;75.00
37052;DHT22;22964;52.272;13.356;2022-10-16T00:38:32;19.40;75.00
37052;DHT22;22964;52.272;13.356;2022-10-16T00:40:58;19.40;75.00
37052;DHT22;22964;52.272;13.356;2022-10-16T00:43:43;19.40;75.10
37052;DHT22;22964;52.272;13.356;2022-10-16T00:46:39;19.40;75.60
37052;DHT22;22964;52.272;13.356;2022-10-16T00:49:12;19.40;75.80
37052;DHT22;22964;52.272;13.356;2022-10-16T00:51:50;19.40;75.40
37052;DHT22;22964;52.272;13.356;2022-10-16T00:54:20;19.40;75.70
37052;DHT22;22964;52.272;13.356;2022-10-16T00:56:47;19.40;75.60
37052;DHT22;22964;52.272;13.356;2022-10-16T00:59:20;19.40;75.60
37052;DHT22;22964;52.272;13.356;2022-10-16T01:01:47;19.40;75.80
37052;DHT22;22964;52.272;13.356;2022-10-16T01:04:13;19.40;75.60
37052;DHT22;22964;52.272;13.356;2022-10-16T01:06:49;19.40;76.50
37052;DHT22;22964;52.272;13.356;2022-10-16T01:09:25;19.40;75.80
37052;DHT22;22964;52.272;13.356;2022-10-16T01:12:01;19.40;75.80
37052;DHT22;22964;52.272;13.356;2022-10-16T01:17:19;19.40;75.70
37052;DHT22;22964;52.272;13.356;2022-10-16T01:20:01;19.40;75.80
37052;DHT22;22964;52.272;13.356;2022-10-16T01:23:21;19.40;75.80
37052;DHT22;22964;52.272;13.356;2022-10-16T01:25:29;19.40;75.90
37052;DHT22;22964;52.272;13.356;2022-10-16T01:27:57;19.40;75.90
37052;DHT22;22964;52.272;13.356;2022-10-16T01:30:27;19.40;75.70
37052;DHT22;22964;52.272;13.356;2022-10-16T01:33:02;19.40;75.90
37052;DHT22;22964;52.272;13.356;2022-10-16T01:35:35;19.40;75.90
37052;DHT22;22964;52.272;13.356;2022-10-16T01:38:19;19.40;75.90
37052;DHT22;22964;52.272;13.356;2022-10-16T01:40:50;19.40;76.00
37052;DHT22;22964;52.272;13.356;2022-10-16T01:43:21;19.50;75.90
37052;DHT22;22964;52.272;13.356;2022-10-16T01:45:49;19.50;76.00
37052;DHT22;22964;52.272;13.356;2022-10-16T01:48:18;19.40;75.80
37052;DHT22;22964;52.272;13.356;2022-10-16T01:50:59;19.40;76.00
37052;DHT22;22964;52.272;13.356;2022-10-16T01:53:26;19.50;76.20
37052;DHT22;22964;52.272;13.356;2022-10-16T01:55:52;19.50;76.10
37052;DHT22;22964;52.272;13.356;2022-10-16T01:58:21;19.50;76.10
37052;DHT22;22964;52.272;13.356;2022-10-16T02:00:48;19.50;76.20
37052;DHT22;22964;52.272;13.356;2022-10-16T02:03:16;19.50;76.10
37052;DHT22;22964;52.272;13.356;2022-10-16T02:05:53;19.50;76.20
37052;DHT22;22964;52.272;13.356;2022-10-16T02:08:20;19.50;76.30
37052;DHT22;22964;52.272;13.356;2022-10-16T02:10:47;19.50;76.20
37052;DHT22;22964;52.272;13.356;2022-10-16T02:13:26;19.50;76.10
37052;DHT22;22964;52.272;13.356;2022-10-16T02:15:53;19.50;76.20
37052;DHT22;22964;52.272;13.356;2022-10-16T02:18:20;19.50;76.00
37052;DHT22;22964;52.272;13.356;2022-10-16T02:20:52;19.50;76.00
37052;DHT22;22964;52.272;13.356;2022-10-16T02:23:42;19.50;76.20
37052;DHT22;22964;52.272;13.356;2022-10-16T02:26:15;19.50;76.20
37052;DHT22;22964;52.272;13.356;2022-10-16T02:28:45;19.50;75.90
37052;DHT22;22964;52.272;13.356;2022-10-16T02:31:16;19.60;76.00
37052;DHT22;22964;52.272;13.356;2022-10-16T02:33:44;19.50;75.90
37052;DHT22;22964;52.272;13.356;2022-10-16T02:36:11;19.60;75.90
37052;DHT22;22964;52.272;13.356;2022-10-16T02:38:37;19.60;75.80
37052;DHT22;22964;52.272;13.356;2022-10-16T02:41:04;19.60;75.80
37052;DHT22;22964;52.272;13.356;2022-10-16T02:43:30;19.60;75.70
37052;DHT22;22964;52.272;13.356;2022-10-16T02:45:55;19.60;75.60
37052;DHT22;22964;52.272;13.356;2022-10-16T02:48:21;19.60;75.50
37052;DHT22;22964;52.272;13.356;2022-10-16T02:50:47;19.60;75.40
37052;DHT22;22964;52.272;13.356;2022-10-16T02:53:12;19.60;75.40
37052;DHT22;22964;52.272;13.356;2022-10-16T02:55:38;19.50;75.30
37052;DHT22;22964;52.272;13.356;2022-10-16T02:58:04;19.50;75.20
37052;DHT22;22964;52.272;13.356;2022-10-16T03:00:29;19.50;75.10
37052;DHT22;22964;52.272;13.356;2022-10-16T03:02:55;19.50;75.00
37052;DHT22;22964;52.272;13.356;2022-10-16T03:05:21;19.50;74.90
37052;DHT22;22964;52.272;13.356;2022-10-16T03:07:46;19.40;74.80
37052;DHT22;22964;52.272;13.356;2022-10-16T03:10:12;19.40;74.80
37052;DHT22;22964;52.272;13.356;2022-10-16T03:12:38;19.30;74.80
37052;DHT22;22964;52.272;13.356;2022-10-16T03:15:04;19.30;74.80
37052;DHT22;22964;52.272;13.356;2022-10-16T03:17:31;19.30;75.00
37052;DHT22;22964;52.272;13.356;2022-10-16T03:19:57;19.30;75.00
37052;DHT22;22964;52.272;13.356;2022-10-16T03:22:23;19.20;75.00
37052;DHT22;22964;52.272;13.356;2022-10-16T03:24:48;19.20;75.00
37052;DHT22;22964;52.272;13.356;2022-10-16T03:27:14;19.20;75.00
37052;DHT22;22964;52.272;13.356;2022-10-16T03:29:40;19.20;75.10
37052;DHT22;22964;52.272;13.356;2022-10-16T03:32:06;19.10;75.00
37052;DHT22;22964;52.272;13.356;2022-10-16T03:34:31;19.10;75.00
37052;DHT22;22964;52.272;13.356;2022-10-16T03:36:58;19.10;75.00
37052;DHT22;22964;52.272;13.356;2022-10-16T03:39:23;19.10;75.00
37052;DHT22;22964;52.272;13.356;2022-10-16T03:41:49;19.10;74.90
37052;DHT22;22964;52.272;13.356;2022-10-16T03:44:15;19.00;74.90
37052;DHT22;22964;52.272;13.356;2022-10-16T03:46:40;19.00;74.90
37052;DHT22;22964;52.272;13.356;2022-10-16T03:49:06;19.00;75.00
37052;DHT22;22964;52.272;13.356;2022-10-16T03:51:32;18.90;74.90
37052;DHT22;22964;52.272;13.356;2022-10-16T03:53:57;18.90;75.00
37052;DHT22;22964;52.272;13.356;2022-10-16T03:56:23;18.90;75.20
37052;DHT22;22964;52.272;13.356;2022-10-16T03:58:49;18.90;75.30
37052;DHT22;22964;52.272;13.356;2022-10-16T04:01:15;18.80;75.40
37052;DHT22;22964;52.272;13.356;2022-10-16T04:03:40;18.90;75.50
37052;DHT22;22964;52.272;13.356;2022-10-16T04:06:06;18.90;75.60
37052;DHT22;22964;52.272;13.356;2022-10-16T04:08:32;18.80;75.60
37052;DHT22;22964;52.272;13.356;2022-10-16T04:11:00;18.80;75.70
37052;DHT22;22964;52.272;13.356;2022-10-16T04:13:26;18.80;75.80
37052;DHT22;22964;52.272;13.356;2022-10-16T04:15:52;18.80;75.80
37052;DHT22;22964;52.272;13.356;2022-10-16T04:18:17;18.80;75.90
37052;DHT22;22964;52.272;13.356;2022-10-16T04:20:43;18.80;75.90
37052;DHT22;22964;52.272;13.356;2022-10-16T04:23:09;18.80;76.00
37052;DHT22;22964;52.272;13.356;2022-10-16T04:25:34;18.70;76.00
37052;DHT22;22964;52.272;13.356;2022-10-16T04:28:00;18.80;76.00
37052;DHT22;22964;52.272;13.356;2022-10-16T04:30:26;18.80;76.00
37052;DHT22;22964;52.272;13.356;2022-10-16T04:32:52;18.80;76.10
37052;DHT22;22964;52.272;13.356;2022-10-16T04:35:18;18.70;76.10
37052;DHT22;22964;52.272;13.356;2022-10-16T04:37:44;18.70;76.30
37052;DHT22;22964;52.272;13.356;2022-10-16T04:40:10;18.70;76.40
37052;DHT22;22964;52.272;13.356;2022-10-16T04:42:36;18.70;76.50
37052;DHT22;22964;52.272;13.356;2022-10-16T04:45:02;18.70;76.50
37052;DHT22;22964;52.272;13.356;2022-10-16T04:47:28;18.70;76.60
37052;DHT22;22964;52.272;13.356;2022-10-16T04:49:54;18.70;76.50
37052;DHT22;22964;52.272;13.356;2022-10-16T04:52:20;18.70;76.40
37052;DHT22;22964;52.272;13.356;2022-10-16T04:54:46;18.70;76.60
37052;DHT22;22964;52.272;13.356;2022-10-16T04:57:12;18.70;76.70
37052;DHT22;22964;52.272;13.356;2022-10-16T04:59:38;18.60;76.70
37052;DHT22;22964;52.272;13.356;2022-10-16T05:02:04;18.70;76.90
37052;DHT22;22964;52.272;13.356;2022-10-16T05:04:30;18.60;77.00
37052;DHT22;22964;52.272;13.356;2022-10-16T05:06:55;18.60;77.00
37052;DHT22;22964;52.272;13.356;2022-10-16T05:09:21;18.60;77.10
37052;DHT22;22964;52.272;13.356;2022-10-16T05:11:47;18.60;77.00
37052;DHT22;22964;52.272;13.356;2022-10-16T05:14:12;18.60;76.90
37052;DHT22;22964;52.272;13.356;2022-10-16T05:16:38;18.60;76.90
37052;DHT22;22964;52.272;13.356;2022-10-16T05:19:03;18.60;76.90
37052;DHT22;22964;52.272;13.356;2022-10-16T05:21:29;18.60;76.90
37052;DHT22;22964;52.272;13.356;2022-10-16T05:23:55;18.60;76.90
37052;DHT22;22964;52.272;13.356;2022-10-16T05:26:21;18.60;77.00
37052;DHT22;22964;52.272;13.356;2022-10-16T05:28:47;18.60;76.90
37052;DHT22;22964;52.272;13.356;2022-10-16T05:31:13;18.60;76.90
37052;DHT22;22964;52.272;13.356;2022-10-16T05:33:38;18.60;76.70
37052;DHT22;22964;52.272;13.356;2022-10-16T05:36:05;18.60;76.60
37052;DHT22;22964;52.272;13.356;2022-10-16T05:38:32;18.60;76.50
37052;DHT22;22964;52.272;13.356;2022-10-16T05:40:58;18.60;76.60
37052;DHT22;22964;52.272;13.356;2022-10-16T05:43:24;18.60;76.90
37052;DHT22;22964;52.272;13.356;2022-10-16T05:45:57;18.50;77.00
37052;DHT22;22964;52.272;13.356;2022-10-16T05:48:23;18.50;77.40
37052;DHT22;22964;52.272;13.356;2022-10-16T05:50:57;18.50;77.20
37052;DHT22;22964;52.272;13.356;2022-10-16T05:53:23;18.50;77.50
37052;DHT22;22964;52.272;13.356;2022-10-16T05:55:57;18.50;77.20
37052;DHT22;22964;52.272;13.356;2022-10-16T05:58:23;18.50;77.50
37052;DHT22;22964;52.272;13.356;2022-10-16T06:00:57;18.50;77.40
37052;DHT22;22964;52.272;13.356;2022-10-16T06:03:23;18.50;77.60
37052;DHT22;22964;52.272;13.356;2022-10-16T06:05:50;18.50;77.40
37052;DHT22;22964;52.272;13.356;2022-10-16T06:08:16;18.50;77.20
37052;DHT22;22964;52.272;13.356;2022-10-16T06:10:42;18.50;77.30
37052;DHT22;22964;52.272;13.356;2022-10-16T06:13:07;18.50;77.50
37052;DHT22;22964;52.272;13.356;2022-10-16T06:15:33;18.50;77.70
37052;DHT22;22964;52.272;13.356;2022-10-16T06:17:59;18.50;78.00
37052;DHT22;22964;52.272;13.356;2022-10-16T06:20:24;18.50;78.10
37052;DHT22;22964;52.272;13.356;2022-10-16T06:22:51;18.50;78.40
37052;DHT22;22964;52.272;13.356;2022-10-16T06:25:16;18.60;78.70
37052;DHT22;22964;52.272;13.356;2022-10-16T06:27:42;18.60;79.00
37052;DHT22;22964;52.272;13.356;2022-10-16T06:30:08;18.60;79.20
37052;DHT22;22964;52.272;13.356;2022-10-16T06:32:34;18.70;79.40
37052;DHT22;22964;52.272;13.356;2022-10-16T06:35:00;18.70;79.50
37052;DHT22;22964;52.272;13.356;2022-10-16T06:37:27;18.70;79.60
37052;DHT22;22964;52.272;13.356;2022-10-16T06:39:52;18.80;79.60
37052;DHT22;22964;52.272;13.356;2022-10-16T06:42:18;18.80;79.50
37052;DHT22;22964;52.272;13.356;2022-10-16T06:44:44;18.90;79.50
37052;DHT22;22964;52.272;13.356;2022-10-16T06:47:10;18.90;79.40
37052;DHT22;22964;52.272;13.356;2022-10-16T06:49:36;18.90;79.30
37052;DHT22;22964;52.272;13.356;2022-10-16T06:52:02;19.00;79.30
37052;DHT22;22964;52.272;13.356;2022-10-16T06:54:28;19.00;79.30
37052;DHT22;22964;52.272;13.356;2022-10-16T06:56:53;19.00;79.30
37052;DHT22;22964;52.272;13.356;2022-10-16T06:59:21;19.10;79.30
37052;DHT22;22964;52.272;13.356;2022-10-16T07:01:46;19.10;79.20
37052;DHT22;22964;52.272;13.356;2022-10-16T07:04:12;19.10;79.10
37052;DHT22;22964;52.272;13.356;2022-10-16T07:06:38;19.20;79.30
37052;DHT22;22964;52.272;13.356;2022-10-16T07:09:07;19.20;79.40
37052;DHT22;22964;52.272;13.356;2022-10-16T07:11:33;19.20;79.40
37052;DHT22;22964;52.272;13.356;2022-10-16T07:13:59;19.20;79.40
37052;DHT22;22964;52.272;13.356;2022-10-16T07:16:29;19.30;79.70
37052;DHT22;22964;52.272;13.356;2022-10-16T07:18:57;19.30;79.90
37052;DHT22;22964;52.272;13.356;2022-10-16T07:21:24;19.40;80.00
37052;DHT22;22964;52.272;13.356;2022-10-16T07:23:59;19.40;80.10
37052;DHT22;22964;52.272;13.356;2022-10-16T07:26:26;19.50;80.30
37052;DHT22;22964;52.272;13.356;2022-10-16T07:28:52;19.50;80.20
37052;DHT22;22964;52.272;13.356;2022-10-16T07:31:19;19.60;80.30
37052;DHT22;22964;52.272;13.356;2022-10-16T07:33:46;19.70;80.50
37052;DHT22;22964;52.272;13.356;2022-10-16T07:36:15;19.80;80.60
37052;DHT22;22964;52.272;13.356;2022-10-16T07:38:41;20.00;80.80
37052;DHT22;22964;52.272;13.356;2022-10-16T07:41:13;20.10;80.70
37052;DHT22;22964;52.272;13.356;2022-10-16T07:43:39;20.30;80.10
37052;DHT22;22964;52.272;13.356;2022-10-16T07:46:06;20.40;79.70
37052;DHT22;22964;52.272;13.356;2022-10-16T07:48:33;20.50;79.70
37052;DHT22;22964;52.272;13.356;2022-10-16T07:51:00;20.60;78.30
37052;DHT22;22964;52.272;13.356;2022-10-16T07:53:27;20.70;78.00
37052;DHT22;22964;52.272;13.356;2022-10-16T07:55:57;20.80;77.70
37052;DHT22;22964;52.272;13.356;2022-10-16T07:58:24;20.90;77.30
37052;DHT22;22964;52.272;13.356;2022-10-16T08:00:49;20.90;77.30
37052;DHT22;22964;52.272;13.356;2022-10-16T08:03:15;21.00;77.20
37052;DHT22;22964;52.272;13.356;2022-10-16T08:05:40;21.10;77.10
37052;DHT22;22964;52.272;13.356;2022-10-16T08:08:06;21.10;76.90
37052;DHT22;22964;52.272;13.356;2022-10-16T08:10:32;21.20;76.60
37052;DHT22;22964;52.272;13.356;2022-10-16T08:12:58;21.20;76.30
37052;DHT22;22964;52.272;13.356;2022-10-16T08:15:24;21.20;75.90
37052;DHT22;22964;52.272;13.356;2022-10-16T08:17:57;21.30;75.60
37052;DHT22;22964;52.272;13.356;2022-10-16T08:20:23;21.40;75.40
37052;DHT22;22964;52.272;13.356;2022-10-16T08:22:49;21.40;75.40
37052;DHT22;22964;52.272;13.356;2022-10-16T08:25:15;21.50;75.20
37052;DHT22;22964;52.272;13.356;2022-10-16T08:27:40;21.50;75.10
37052;DHT22;22964;52.272;13.356;2022-10-16T08:30:06;21.50;74.80
37052;DHT22;22964;52.272;13.356;2022-10-16T08:32:32;21.60;74.80
37052;DHT22;22964;52.272;13.356;2022-10-16T08:34:58;21.60;74.60
37052;DHT22;22964;52.272;13.356;2022-10-16T08:37:24;21.70;74.50
37052;DHT22;22964;52.272;13.356;2022-10-16T08:39:50;21.70;74.40
37052;DHT22;22964;52.272;13.356;2022-10-16T08:45:00;21.80;74.50
37052;DHT22;22964;52.272;13.356;2022-10-16T08:50:32;22.00;72.70
37052;DHT22;22964;52.272;13.356;2022-10-16T08:52:58;22.00;73.10
37052;DHT22;22964;52.272;13.356;2022-10-16T08:55:44;22.10;73.00
37052;DHT22;22964;52.272;13.356;2022-10-16T08:58:16;22.20;72.30
37052;DHT22;22964;52.272;13.356;2022-10-16T09:00:45;22.20;71.90
37052;DHT22;22964;52.272;13.356;2022-10-16T09:06:08;22.30;70.70
37052;DHT22;22964;52.272;13.356;2022-10-16T09:16:57;22.40;70.30
37052;DHT22;22964;52.272;13.356;2022-10-16T09:19:36;22.40;70.20
37052;DHT22;22964;52.272;13.356;2022-10-16T09:22:12;22.40;69.70
37052;DHT22;22964;52.272;13.356;2022-10-16T09:24:39;22.40;70.10
37052;DHT22;22964;52.272;13.356;2022-10-16T09:27:11;22.40;70.70
37052;DHT22;22964;52.272;13.356;2022-10-16T09:29:37;22.40;70.40
37052;DHT22;22964;52.272;13.356;2022-10-16T09:32:19;22.50;70.70
37052;DHT22;22964;52.272;13.356;2022-10-16T09:34:49;22.50;70.00
37052;DHT22;22964;52.272;13.356;2022-10-16T09:37:18;22.60;70.60
37052;DHT22;22964;52.272;13.356;2022-10-16T09:39:54;22.60;69.90
37052;DHT22;22964;52.272;13.356;2022-10-16T09:42:27;22.60;69.10
37052;DHT22;22964;52.272;13.356;2022-10-16T09:44:56;22.70;69.10
37052;DHT22;22964;52.272;13.356;2022-10-16T09:47:29;22.70;69.10
37052;DHT22;22964;52.272;13.356;2022-10-16T09:49:56;22.70;68.10
37052;DHT22;22964;52.272;13.356;2022-10-16T09:52:23;22.70;68.80
37052;DHT22;22964;52.272;13.356;2022-10-16T09:54:57;22.70;68.60
37052;DHT22;22964;52.272;13.356;2022-10-16T09:57:24;22.70;68.20
37052;DHT22;22964;52.272;13.356;2022-10-16T09:59:55;22.70;68.90
37052;DHT22;22964;52.272;13.356;2022-10-16T10:02:34;22.80;68.40
37052;DHT22;22964;52.272;13.356;2022-10-16T10:05:00;22.70;68.00
37052;DHT22;22964;52.272;13.356;2022-10-16T10:07:29;22.80;68.40
37052;DHT22;22964;52.272;13.356;2022-10-16T10:09:58;22.80;68.30
37052;DHT22;22964;52.272;13.356;2022-10-16T10:12:25;22.90;68.30
37052;DHT22;22964;52.272;13.356;2022-10-16T10:14:54;22.90;68.20
37052;DHT22;22964;52.272;13.356;2022-10-16T10:17:23;22.90;68.30
37052;DHT22;22964;52.272;13.356;2022-10-16T10:19:57;22.90;68.10
37052;DHT22;22964;52.272;13.356;2022-10-16T10:22:41;23.00;67.80
37052;DHT22;22964;52.272;13.356;2022-10-16T10:28:03;23.10;68.20
37052;DHT22;22964;52.272;13.356;2022-10-16T10:35:52;23.20;66.80
37052;DHT22;22964;52.272;13.356;2022-10-16T10:46:21;23.50;66.40
37052;DHT22;22964;52.272;13.356;2022-10-16T10:48:54;23.50;64.90
37052;DHT22;22964;52.272;13.356;2022-10-16T10:51:36;23.60;64.00
37052;DHT22;22964;52.272;13.356;2022-10-16T10:54:27;23.60;62.60
37052;DHT22;22964;52.272;13.356;2022-10-16T10:57:21;23.70;62.60
37052;DHT22;22964;52.272;13.356;2022-10-16T11:02:37;23.70;62.30
37052;DHT22;22964;52.272;13.356;2022-10-16T11:08:04;23.80;60.90
37052;DHT22;22964;52.272;13.356;2022-10-16T11:15:55;23.80;60.00
37052;DHT22;22964;52.272;13.356;2022-10-16T11:18:50;23.80;60.10
37052;DHT22;22964;52.272;13.356;2022-10-16T11:21:19;23.90;59.10
37052;DHT22;22964;52.272;13.356;2022-10-16T11:26:26;23.90;59.90
37052;DHT22;22964;52.272;13.356;2022-10-16T11:28:55;24.00;60.40
37052;DHT22;22964;52.272;13.356;2022-10-16T11:34:22;24.10;59.30
37052;DHT22;22964;52.272;13.356;2022-10-16T11:39:26;24.30;60.00
37052;DHT22;22964;52.272;13.356;2022-10-16T11:41:53;24.40;59.20
37052;DHT22;22964;52.272;13.356;2022-10-16T11:49:43;24.70;58.10
37052;DHT22;22964;52.272;13.356;2022-10-16T11:52:25;24.80;58.30
37052;DHT22;22964;52.272;13.356;2022-10-16T11:55:13;24.80;57.20
37052;DHT22;22964;52.272;13.356;2022-10-16T11:57:44;24.90;57.60
37052;DHT22;22964;52.272;13.356;2022-10-16T12:00:24;25.00;57.20
37052;DHT22;22964;52.272;13.356;2022-10-16T12:02:56;25.00;55.60
37052;DHT22;22964;52.272;13.356;2022-10-16T12:05:35;25.10;56.70
37052;DHT22;22964;52.272;13.356;2022-10-16T12:08:13;25.20;55.90
37052;DHT22;22964;52.272;13.356;2022-10-16T12:10:41;25.20;55.10
37052;DHT22;22964;52.272;13.356;2022-10-16T12:13:30;25.30;56.00
37052;DHT22;22964;52.272;13.356;2022-10-16T12:18:39;25.30;54.80
37052;DHT22;22964;52.272;13.356;2022-10-16T12:21:05;25.50;56.10
37052;DHT22;22964;52.272;13.356;2022-10-16T12:23:46;25.50;55.70
37052;DHT22;22964;52.272;13.356;2022-10-16T12:26:12;25.60;54.30
37052;DHT22;22964;52.272;13.356;2022-10-16T12:28:38;25.70;55.20
37052;DHT22;22964;52.272;13.356;2022-10-16T12:31:07;25.70;54.60
37052;DHT22;22964;52.272;13.356;2022-10-16T12:33:37;25.80;54.60
37052;DHT22;22964;52.272;13.356;2022-10-16T12:36:15;25.80;54.40
37052;DHT22;22964;52.272;13.356;2022-10-16T12:38:50;25.90;54.00
37052;DHT22;22964;52.272;13.356;2022-10-16T12:41:31;26.00;53.30
37052;DHT22;22964;52.272;13.356;2022-10-16T12:43:58;25.90;53.10
37052;DHT22;22964;52.272;13.356;2022-10-16T12:51:38;26.10;52.40
37052;DHT22;22964;52.272;13.356;2022-10-16T13:11:50;26.40;51.40
37052;DHT22;22964;52.272;13.356;2022-10-16T13:20:16;26.50;51.70
37052;DHT22;22964;52.272;13.356;2022-10-16T13:25:47;26.60;51.00
37052;DHT22;22964;52.272;13.356;2022-10-16T13:28:16;26.60;51.20
37052;DHT22;22964;52.272;13.356;2022-10-16T13:30:51;26.60;51.40
37052;DHT22;22964;52.272;13.356;2022-10-16T13:33:30;26.60;51.20
37052;DHT22;22964;52.272;13.356;2022-10-16T13:35:58;26.70;50.50
37052;DHT22;22964;52.272;13.356;2022-10-16T13:38:27;26.70;51.00
37052;DHT22;22964;52.272;13.356;2022-10-16T13:43:41;26.60;50.20
37052;DHT22;22964;52.272;13.356;2022-10-16T13:46:22;26.70;49.90
37052;DHT22;22964;52.272;13.356;2022-10-16T13:51:23;26.50;49.60
37052;DHT22;22964;52.272;13.356;2022-10-16T13:56:29;26.50;50.30
37052;DHT22;22964;52.272;13.356;2022-10-16T13:59:04;26.50;50.20
37052;DHT22;22964;52.272;13.356;2022-10-16T14:01:43;26.40;49.80
37052;DHT22;22964;52.272;13.356;2022-10-16T14:04:12;26.30;49.70
37052;DHT22;22964;52.272;13.356;2022-10-16T14:06:41;26.20;50.50
37052;DHT22;22964;52.272;13.356;2022-10-16T14:09:27;26.20;50.40
37052;DHT22;22964;52.272;13.356;2022-10-16T14:11:57;26.10;49.90
37052;DHT22;22964;52.272;13.356;2022-10-16T14:14:24;26.00;50.40
37052;DHT22;22964;52.272;13.356;2022-10-16T14:16:50;26.00;51.40
37052;DHT22;22964;52.272;13.356;2022-10-16T14:19:22;25.90;50.60
37052;DHT22;22964;52.272;13.356;2022-10-16T14:21:49;25.80;50.20
37052;DHT22;22964;52.272;13.356;2022-10-16T14:26:56;25.80;50.60
37052;DHT22;22964;52.272;13.356;2022-10-16T14:29:23;25.80;51.40
37052;DHT22;22964;52.272;13.356;2022-10-16T14:32:01;25.80;51.20
37052;DHT22;22964;52.272;13.356;2022-10-16T14:34:37;25.70;50.50
37052;DHT22;22964;52.272;13.356;2022-10-16T14:37:27;25.70;50.40
37052;DHT22;22964;52.272;13.356;2022-10-16T14:39:54;25.60;50.20
37052;DHT22;22964;52.272;13.356;2022-10-16T14:42:23;25.60;50.90
37052;DHT22;22964;52.272;13.356;2022-10-16T14:44:53;25.60;50.80
37052;DHT22;22964;52.272;13.356;2022-10-16T14:47:24;25.50;50.70
37052;DHT22;22964;52.272;13.356;2022-10-16T14:49:53;25.40;50.60
37052;DHT22;22964;52.272;13.356;2022-10-16T14:52:21;25.40;51.10
37052;DHT22;22964;52.272;13.356;2022-10-16T14:54:50;25.30;51.00
37052;DHT22;22964;52.272;13.356;2022-10-16T14:57:23;25.30;50.60
37052;DHT22;22964;52.272;13.356;2022-10-16T14:59:49;25.20;50.70
37052;DHT22;22964;52.272;13.356;2022-10-16T15:02:30;25.10;50.90
37052;DHT22;22964;52.272;13.356;2022-10-16T15:04:57;25.00;50.50
37052;DHT22;22964;52.272;13.356;2022-10-16T15:07:23;25.00;51.10
37052;DHT22;22964;52.272;13.356;2022-10-16T15:09:49;25.00;51.20
37052;DHT22;22964;52.272;13.356;2022-10-16T15:12:15;24.90;51.30
37052;DHT22;22964;52.272;13.356;2022-10-16T15:14:41;24.90;51.30
37052;DHT22;22964;52.272;13.356;2022-10-16T15:17:09;24.80;51.30
37052;DHT22;22964;52.272;13.356;2022-10-16T15:19:35;24.80;51.20
37052;DHT22;22964;52.272;13.356;2022-10-16T15:22:01;24.70;51.40
37052;DHT22;22964;52.272;13.356;2022-10-16T15:24:27;24.70;51.30
37052;DHT22;22964;52.272;13.356;2022-10-16T15:26:52;24.60;51.40
37052;DHT22;22964;52.272;13.356;2022-10-16T15:29:18;24.60;51.30
37052;DHT22;22964;52.272;13.356;2022-10-16T15:31:43;24.50;51.30
37052;DHT22;22964;52.272;13.356;2022-10-16T15:34:10;24.50;51.30
37052;DHT22;22964;52.272;13.356;2022-10-16T15:36:37;24.40;51.40
37052;DHT22;22964;52.272;13.356;2022-10-16T15:39:04;24.40;51.30
37052;DHT22;22964;52.272;13.356;2022-10-16T15:41:31;24.30;51.40
37052;DHT22;22964;52.272;13.356;2022-10-16T15:43:56;24.20;51.60
37052;DHT22;22964;52.272;13.356;2022-10-16T15:46:23;24.20;51.70
37052;DHT22;22964;52.272;13.356;2022-10-16T15:48:50;24.10;51.70
37052;DHT22;22964;52.272;13.356;2022-10-16T15:51:18;24.10;51.80
37052;DHT22;22964;52.272;13.356;2022-10-16T15:53:44;24.00;51.90
37052;DHT22;22964;52.272;13.356;2022-10-16T15:56:12;23.90;52.00
37052;DHT22;22964;52.272;13.356;2022-10-16T15:58:38;23.90;52.10
37052;DHT22;22964;52.272;13.356;2022-10-16T16:01:04;23.80;52.20
37052;DHT22;22964;52.272;13.356;2022-10-16T16:03:31;23.80;52.20
37052;DHT22;22964;52.272;13.356;2022-10-16T16:05:58;23.70;52.30
37052;DHT22;22964;52.272;13.356;2022-10-16T16:08:28;23.60;52.40
37052;DHT22;22964;52.272;13.356;2022-10-16T16:11:07;23.50;52.50
37052;DHT22;22964;52.272;13.356;2022-10-16T16:13:34;23.40;52.60
37052;DHT22;22964;52.272;13.356;2022-10-16T16:16:05;23.30;52.80
37052;DHT22;22964;52.272;13.356;2022-10-16T16:18:31;23.20;52.90
37052;DHT22;22964;52.272;13.356;2022-10-16T16:20:56;23.10;53.00
37052;DHT22;22964;52.272;13.356;2022-10-16T16:23:22;23.00;53.00
37052;DHT22;22964;52.272;13.356;2022-10-16T16:26:12;22.90;53.10
37052;DHT22;22964;52.272;13.356;2022-10-16T16:28:39;22.80;53.30
37052;DHT22;22964;52.272;13.356;2022-10-16T16:31:05;22.70;54.00
37052;DHT22;22964;52.272;13.356;2022-10-16T16:33:31;22.60;53.50
37052;DHT22;22964;52.272;13.356;2022-10-16T16:36:01;22.50;53.50
37052;DHT22;22964;52.272;13.356;2022-10-16T16:38:28;22.40;53.60
37052;DHT22;22964;52.272;13.356;2022-10-16T16:40:54;22.30;53.70
37052;DHT22;22964;52.272;13.356;2022-10-16T16:43:26;22.20;53.80
37052;DHT22;22964;52.272;13.356;2022-10-16T16:45:53;22.10;54.00
37052;DHT22;22964;52.272;13.356;2022-10-16T16:48:19;22.00;54.00
37052;DHT22;22964;52.272;13.356;2022-10-16T16:50:45;21.90;54.20
37052;DHT22;22964;52.272;13.356;2022-10-16T16:53:11;21.80;54.30
37052;DHT22;22964;52.272;13.356;2022-10-16T16:55:36;21.70;54.50
37052;DHT22;22964;52.272;13.356;2022-10-16T16:58:02;21.60;54.70
37052;DHT22;22964;52.272;13.356;2022-10-16T17:00:29;21.50;54.80
37052;DHT22;22964;52.272;13.356;2022-10-16T17:02:56;21.40;55.00
37052;DHT22;22964;52.272;13.356;2022-10-16T17:05:22;21.30;55.10
37052;DHT22;22964;52.272;13.356;2022-10-16T17:07:48;21.30;55.20
37052;DHT22;22964;52.272;13.356;2022-10-16T17:10:13;21.20;55.30
37052;DHT22;22964;52.272;13.356;2022-10-16T17:12:39;21.10;55.40